TimeEDT,TemperatureF,Dew PointF,Humidity,Sea Level PressureIn,VisibilityMPH,Wind Direction,Wind SpeedMPH,Gust SpeedMPH,PrecipitationIn,Events,Conditions,WindDirDegrees,DateUTC
12:54 AM,61.0,57.0,87,30.22,10.0,Calm,Calm,-,N/A,,Clear,0,2013-04-17 04:54:00
1:54 AM,60.1,57.0,90,30.21,10.0,Calm,Calm,-,N/A,,Clear,0,2013-04-17 05:54:00
2:54 AM,57.9,57.0,97,30.20,10.0,Calm,Calm,-,N/A,,Clear,0,2013-04-17 06:54:00
3:54 AM,57.0,55.9,96,30.21,8.0,Calm,Calm,-,N/A,,Clear,0,2013-04-17 07:54:00
4:54 AM,57.0,55.9,96,30.21,8.0,Calm,Calm,-,N/A,,Mostly Cloudy,0,2013-04-17 08:54:00
5:54 AM,57.9,57.0,97,30.20,8.0,Calm,Calm,-,N/A,,Mostly Cloudy,0,2013-04-17 09:54:00
6:54 AM,57.9,57.0,97,30.24,9.0,Calm,Calm,-,N/A,,Mostly Cloudy,0,2013-04-17 10:54:00
7:54 AM,61.0,59.0,93,30.24,8.0,Calm,Calm,-,N/A,,Partly Cloudy,0,2013-04-17 11:54:00
8:54 AM,66.0,60.1,81,30.22,10.0,SW,4.6,-,N/A,,Clear,220,2013-04-17 12:54:00
10:54 AM,73.9,60.1,62,30.21,10.0,Variable,3.5,-,N/A,,Clear,0,2013-04-17 14:54:00
11:54 AM,77.0,62.1,60,30.20,10.0,Variable,4.6,-,N/A,,Clear,0,2013-04-17 15:54:00
12:54 PM,80.1,61.0,52,30.19,10.0,Variable,3.5,-,N/A,,Mostly Cloudy,0,2013-04-17 16:54:00
1:54 PM,84.0,63.0,49,30.16,10.0,North,10.4,-,N/A,,Partly Cloudy,10,2013-04-17 17:54:00
2:54 PM,80.1,57.0,45,30.15,10.0,NE,5.8,-,N/A,,Overcast,50,2013-04-17 18:54:00
3:54 PM,81.0,57.9,45,30.14,10.0,NNE,5.8,-,N/A,,Mostly Cloudy,30,2013-04-17 19:54:00
4:54 PM,79.0,59.0,50,30.12,10.0,NNW,5.8,-,N/A,,Clear,340,2013-04-17 20:54:00
5:54 PM,78.1,57.9,50,30.11,10.0,Calm,Calm,-,N/A,,Clear,0,2013-04-17 21:54:00
6:54 PM,75.9,57.9,54,30.11,10.0,Calm,Calm,-,N/A,,Clear,0,2013-04-17 22:54:00
7:54 PM,73.9,57.9,57,30.12,10.0,NNW,3.5,-,N/A,,Overcast,330,2013-04-17 23:54:00
8:54 PM,70.0,60.1,71,30.14,10.0,Calm,Calm,-,N/A,,Mostly Cloudy,0,2013-04-18 00:54:00
9:54 PM,69.1,60.1,73,30.14,10.0,Calm,Calm,-,N/A,,Mostly Cloudy,0,2013-04-18 01:54:00
10:54 PM,66.0,60.1,81,30.13,10.0,Calm,Calm,-,N/A,,Clear,0,2013-04-18 02:54:00
11:54 PM,64.9,61.0,87,30.13,10.0,Calm,Calm,-,N/A,,Scattered Clouds,0,2013-04-18 03:54:00